sensor_id;sensor_type;location;lat;lon;timestamp;pressure;altitude;pressure_sealevel;temperature;humidity
24666;BME280;29726;53.532;-1.478;2023-06-14T00:01:20;100967.59;;;26.98;nan
24666;BME280;29726;53.532;-1.478;2023-06-14T00:04:05;100978.28;;;26.90;nan
24666;BME280;29726;53.532;-1.478;2023-06-14T00:06:52;100961.09;;;26.83;nan
24666;BME280;29726;53.532;-1.478;2023-06-14T00:09:36;100972.13;;;26.79;nan
24666;BME280;29726;53.532;-1.478;2023-06-14T00:12:20;100961.03;;;26.68;nan
24666;BME280;29726;53.532;-1.478;2023-06-14T00:15:05;100986.28;;;26.69;nan
24666;BME280;29726;53.532;-1.478;2023-06-14T00:17:49;100988.91;;;26.60;nan
24666;BME280;29726;53.532;-1.478;2023-06-14T00:20:33;100970.91;;;26.52;nan
24666;BME280;29726;53.532;-1.478;2023-06-14T00:23:18;100983.09;;;26.45;nan
24666;BME280;29726;53.532;-1.478;2023-06-14T00:26:02;100972.38;;;26.38;nan
24666;BME280;29726;53.532;-1.478;2023-06-14T00:28:46;100978.09;;;26.38;nan
24666;BME280;29726;53.532;-1.478;2023-06-14T00:31:30;100915.84;;;25.95;nan
24666;BME280;29726;53.532;-1.478;2023-06-14T00:34:14;100969.03;;;26.19;nan
24666;BME280;29726;53.532;-1.478;2023-06-14T00:36:59;100987.56;;;26.18;nan
24666;BME280;29726;53.532;-1.478;2023-06-14T00:39:43;100976.59;;;26.09;nan
24666;BME280;29726;53.532;-1.478;2023-06-14T00:42:28;100963.34;;;25.91;nan
24666;BME280;29726;53.532;-1.478;2023-06-14T00:45:12;100976.38;;;25.99;nan
24666;BME280;29726;53.532;-1.478;2023-06-14T00:47:57;100964.25;;;25.86;nan
24666;BME280;29726;53.532;-1.478;2023-06-14T00:50:41;100981.84;;;25.90;nan
24666;BME280;29726;53.532;-1.478;2023-06-14T00:53:31;100962.44;;;25.75;nan
24666;BME280;29726;53.532;-1.478;2023-06-14T00:56:17;100962.75;;;25.64;nan
24666;BME280;29726;53.532;-1.478;2023-06-14T00:59:04;100980.31;;;25.68;nan
24666;BME280;29726;53.532;-1.478;2023-06-14T01:01:48;100965.56;;;25.57;nan
24666;BME280;29726;53.532;-1.478;2023-06-14T01:04:32;100972.22;;;25.52;nan
24666;BME280;29726;53.532;-1.478;2023-06-14T01:10:32;100980.84;;;25.39;nan
24666;BME280;29726;53.532;-1.478;2023-06-14T01:13:30;100969.38;;;25.32;nan
24666;BME280;29726;53.532;-1.478;2023-06-14T01:16:16;100967.38;;;25.19;nan
24666;BME280;29726;53.532;-1.478;2023-06-14T01:19:01;100956.59;;;25.12;nan
24666;BME280;29726;53.532;-1.478;2023-06-14T01:21:46;100954.97;;;25.04;nan
24666;BME280;29726;53.532;-1.478;2023-06-14T01:24:34;100962.38;;;24.99;nan
24666;BME280;29726;53.532;-1.478;2023-06-14T01:27:18;100954.47;;;24.92;nan
24666;BME280;29726;53.532;-1.478;2023-06-14T01:30:03;100975.13;;;24.98;nan
24666;BME280;29726;53.532;-1.478;2023-06-14T01:32:49;100974.97;;;24.83;nan
24666;BME280;29726;53.532;-1.478;2023-06-14T01:35:35;100969.25;;;24.83;nan
24666;BME280;29726;53.532;-1.478;2023-06-14T01:38:26;100966.09;;;24.74;nan
24666;BME280;29726;53.532;-1.478;2023-06-14T01:43:56;100961.31;;;24.56;nan
24666;BME280;29726;53.532;-1.478;2023-06-14T01:46:42;100972.63;;;24.61;nan
24666;BME280;29726;53.532;-1.478;2023-06-14T01:49:27;100965.06;;;24.51;nan
24666;BME280;29726;53.532;-1.478;2023-06-14T01:52:11;100969.00;;;24.48;nan
24666;BME280;29726;53.532;-1.478;2023-06-14T01:54:55;100974.84;;;24.42;nan
24666;BME280;29726;53.532;-1.478;2023-06-14T01:57:39;100959.94;;;24.36;nan
24666;BME280;29726;53.532;-1.478;2023-06-14T02:00:23;100954.81;;;24.22;nan
24666;BME280;29726;53.532;-1.478;2023-06-14T02:03:07;100959.72;;;24.21;nan
24666;BME280;29726;53.532;-1.478;2023-06-14T02:05:51;100937.91;;;24.11;nan
24666;BME280;29726;53.532;-1.478;2023-06-14T02:08:36;100955.81;;;24.11;nan
24666;BME280;29726;53.532;-1.478;2023-06-14T02:11:20;100956.47;;;24.04;nan
24666;BME280;29726;53.532;-1.478;2023-06-14T02:14:03;100950.66;;;23.97;nan
24666;BME280;29726;53.532;-1.478;2023-06-14T02:16:47;100944.06;;;23.89;nan
24666;BME280;29726;53.532;-1.478;2023-06-14T02:19:35;100938.72;;;23.85;nan
24666;BME280;29726;53.532;-1.478;2023-06-14T02:22:19;100943.50;;;23.77;nan
24666;BME280;29726;53.532;-1.478;2023-06-14T02:27:50;100961.63;;;23.67;nan
24666;BME280;29726;53.532;-1.478;2023-06-14T02:30:34;100955.34;;;23.56;nan
24666;BME280;29726;53.532;-1.478;2023-06-14T02:33:18;100964.44;;;23.54;nan
24666;BME280;29726;53.532;-1.478;2023-06-14T02:36:02;100917.59;;;23.24;nan
24666;BME280;29726;53.532;-1.478;2023-06-14T02:38:46;100957.19;;;23.40;nan
24666;BME280;29726;53.532;-1.478;2023-06-14T02:41:31;100950.06;;;23.34;nan
24666;BME280;29726;53.532;-1.478;2023-06-14T02:44:15;100941.47;;;23.21;nan
24666;BME280;29726;53.532;-1.478;2023-06-14T02:47:01;100935.34;;;23.17;nan
24666;BME280;29726;53.532;-1.478;2023-06-14T02:49:45;100991.69;;;23.24;nan
24666;BME280;29726;53.532;-1.478;2023-06-14T02:52:33;100940.09;;;23.09;nan
24666;BME280;29726;53.532;-1.478;2023-06-14T02:55:17;100947.66;;;23.06;nan
24666;BME280;29726;53.532;-1.478;2023-06-14T02:58:01;100949.63;;;22.98;nan
24666;BME280;29726;53.532;-1.478;2023-06-14T03:00:45;100951.69;;;22.98;nan
24666;BME280;29726;53.532;-1.478;2023-06-14T03:03:29;100954.63;;;22.92;nan
24666;BME280;29726;53.532;-1.478;2023-06-14T03:09:00;100966.19;;;22.81;nan
24666;BME280;29726;53.532;-1.478;2023-06-14T03:11:48;100953.56;;;22.77;nan
24666;BME280;29726;53.532;-1.478;2023-06-14T03:17:16;100950.69;;;22.64;nan
24666;BME280;29726;53.532;-1.478;2023-06-14T03:20:01;100958.50;;;22.58;nan
24666;BME280;29726;53.532;-1.478;2023-06-14T03:25:29;100956.69;;;22.42;nan
24666;BME280;29726;53.532;-1.478;2023-06-14T03:28:13;100960.34;;;22.37;nan
24666;BME280;29726;53.532;-1.478;2023-06-14T03:30:57;100953.72;;;22.29;nan
24666;BME280;29726;53.532;-1.478;2023-06-14T03:33:41;100949.13;;;22.26;nan
24666;BME280;29726;53.532;-1.478;2023-06-14T03:36:25;100939.41;;;22.16;nan
24666;BME280;29726;53.532;-1.478;2023-06-14T03:39:09;100962.44;;;22.18;nan
24666;BME280;29726;53.532;-1.478;2023-06-14T03:41:53;100934.19;;;22.01;nan
24666;BME280;29726;53.532;-1.478;2023-06-14T03:44:37;100946.56;;;22.04;nan
24666;BME280;29726;53.532;-1.478;2023-06-14T03:47:22;100956.13;;;22.06;nan
24666;BME280;29726;53.532;-1.478;2023-06-14T03:50:06;100946.41;;;21.97;nan
24666;BME280;29726;53.532;-1.478;2023-06-14T03:52:50;100955.25;;;21.93;nan
24666;BME280;29726;53.532;-1.478;2023-06-14T03:55:34;100936.78;;;21.81;nan
24666;BME280;29726;53.532;-1.478;2023-06-14T03:58:18;100954.28;;;21.85;nan
24666;BME280;29726;53.532;-1.478;2023-06-14T04:01:02;100940.50;;;21.71;nan
24666;BME280;29726;53.532;-1.478;2023-06-14T04:03:46;100896.38;;;21.40;nan
24666;BME280;29726;53.532;-1.478;2023-06-14T04:06:31;100934.44;;;21.56;nan
24666;BME280;29726;53.532;-1.478;2023-06-14T04:14:46;100955.34;;;21.58;nan
24666;BME280;29726;53.532;-1.478;2023-06-14T04:20:16;100951.06;;;21.46;nan
24666;BME280;29726;53.532;-1.478;2023-06-14T04:23:17;100938.75;;;21.38;nan
24666;BME280;29726;53.532;-1.478;2023-06-14T04:26:05;100940.91;;;21.32;nan
24666;BME280;29726;53.532;-1.478;2023-06-14T04:28:50;100941.19;;;21.29;nan
24666;BME280;29726;53.532;-1.478;2023-06-14T04:31:34;100954.38;;;21.26;nan
24666;BME280;29726;53.532;-1.478;2023-06-14T04:34:20;100935.63;;;21.18;nan
24666;BME280;29726;53.532;-1.478;2023-06-14T04:37:05;100923.88;;;21.03;nan
24666;BME280;29726;53.532;-1.478;2023-06-14T04:39:51;100941.56;;;21.14;nan
24666;BME280;29726;53.532;-1.478;2023-06-14T04:42:36;100938.78;;;21.09;nan
24666;BME280;29726;53.532;-1.478;2023-06-14T04:45:20;100946.81;;;21.05;nan
24666;BME280;29726;53.532;-1.478;2023-06-14T04:48:05;100951.50;;;21.02;nan
24666;BME280;29726;53.532;-1.478;2023-06-14T04:50:50;100894.50;;;20.60;nan
24666;BME280;29726;53.532;-1.478;2023-06-14T04:53:37;100945.44;;;20.87;nan
24666;BME280;29726;53.532;-1.478;2023-06-14T04:56:21;100973.22;;;20.94;nan
24666;BME280;29726;53.532;-1.478;2023-06-14T04:59:05;100937.78;;;20.71;nan
24666;BME280;29726;53.532;-1.478;2023-06-14T05:01:50;100958.59;;;20.85;nan
24666;BME280;29726;53.532;-1.478;2023-06-14T05:04:35;100938.81;;;20.68;nan
24666;BME280;29726;53.532;-1.478;2023-06-14T05:10:07;100961.25;;;20.72;nan
24666;BME280;29726;53.532;-1.478;2023-06-14T05:12:51;100955.09;;;20.68;nan
24666;BME280;29726;53.532;-1.478;2023-06-14T05:15:36;100965.41;;;20.71;nan
24666;BME280;29726;53.532;-1.478;2023-06-14T05:18:21;100958.72;;;20.63;nan
24666;BME280;29726;53.532;-1.478;2023-06-14T05:21:05;100947.38;;;20.63;nan
24666;BME280;29726;53.532;-1.478;2023-06-14T05:23:49;100946.91;;;20.53;nan
24666;BME280;29726;53.532;-1.478;2023-06-14T05:26:35;100937.44;;;20.45;nan
24666;BME280;29726;53.532;-1.478;2023-06-14T05:29:19;100953.41;;;20.48;nan
24666;BME280;29726;53.532;-1.478;2023-06-14T05:32:04;100969.38;;;20.51;nan
24666;BME280;29726;53.532;-1.478;2023-06-14T05:37:32;100962.94;;;20.51;nan
24666;BME280;29726;53.532;-1.478;2023-06-14T05:40:16;100966.53;;;20.51;nan
24666;BME280;29726;53.532;-1.478;2023-06-14T05:43:01;100953.16;;;20.46;nan
24666;BME280;29726;53.532;-1.478;2023-06-14T05:45:44;100956.78;;;20.47;nan
24666;BME280;29726;53.532;-1.478;2023-06-14T05:51:13;100959.63;;;20.47;nan
24666;BME280;29726;53.532;-1.478;2023-06-14T05:53:57;100928.75;;;20.32;nan
24666;BME280;29726;53.532;-1.478;2023-06-14T05:56:41;100896.41;;;20.12;nan
24666;BME280;29726;53.532;-1.478;2023-06-14T05:59:25;100960.13;;;20.45;nan
24666;BME280;29726;53.532;-1.478;2023-06-14T06:02:09;100960.13;;;20.45;nan
24666;BME280;29726;53.532;-1.478;2023-06-14T06:04:53;100968.63;;;20.51;nan
24666;BME280;29726;53.532;-1.478;2023-06-14T06:07:37;100970.63;;;20.56;nan
24666;BME280;29726;53.532;-1.478;2023-06-14T06:10:23;100972.44;;;20.53;nan
24666;BME280;29726;53.532;-1.478;2023-06-14T06:13:08;100958.03;;;20.51;nan
24666;BME280;29726;53.532;-1.478;2023-06-14T06:15:52;100978.63;;;20.57;nan
24666;BME280;29726;53.532;-1.478;2023-06-14T06:18:36;100964.97;;;20.56;nan
24666;BME280;29726;53.532;-1.478;2023-06-14T06:21:20;100969.59;;;20.59;nan
24666;BME280;29726;53.532;-1.478;2023-06-14T06:24:05;100977.28;;;20.64;nan
24666;BME280;29726;53.532;-1.478;2023-06-14T06:29:33;100965.41;;;20.65;nan
24666;BME280;29726;53.532;-1.478;2023-06-14T06:32:18;100979.03;;;20.72;nan
24666;BME280;29726;53.532;-1.478;2023-06-14T06:35:03;100972.59;;;20.72;nan
24666;BME280;29726;53.532;-1.478;2023-06-14T06:40:33;100988.50;;;20.86;nan
24666;BME280;29726;53.532;-1.478;2023-06-14T06:43:17;100974.63;;;20.77;nan
24666;BME280;29726;53.532;-1.478;2023-06-14T06:46:01;100991.81;;;20.95;nan
24666;BME280;29726;53.532;-1.478;2023-06-14T06:48:45;100992.28;;;20.99;nan
24666;BME280;29726;53.532;-1.478;2023-06-14T06:51:29;100973.78;;;20.93;nan
24666;BME280;29726;53.532;-1.478;2023-06-14T06:56:58;100988.28;;;21.19;nan
24666;BME280;29726;53.532;-1.478;2023-06-14T06:59:42;100972.56;;;21.12;nan
24666;BME280;29726;53.532;-1.478;2023-06-14T07:02:26;100970.94;;;21.22;nan
24666;BME280;29726;53.532;-1.478;2023-06-14T07:05:10;100979.88;;;21.32;nan
24666;BME280;29726;53.532;-1.478;2023-06-14T07:07:53;100933.16;;;21.03;nan
24666;BME280;29726;53.532;-1.478;2023-06-14T07:10:37;100984.69;;;21.42;nan
24666;BME280;29726;53.532;-1.478;2023-06-14T07:13:21;100993.63;;;21.52;nan
24666;BME280;29726;53.532;-1.478;2023-06-14T07:16:05;100996.91;;;21.61;nan
24666;BME280;29726;53.532;-1.478;2023-06-14T07:18:50;100990.66;;;21.68;nan
24666;BME280;29726;53.532;-1.478;2023-06-14T07:21:34;100983.66;;;21.69;nan
24666;BME280;29726;53.532;-1.478;2023-06-14T07:24:19;100980.25;;;21.76;nan
24666;BME280;29726;53.532;-1.478;2023-06-14T07:27:05;101006.72;;;21.90;nan
24666;BME280;29726;53.532;-1.478;2023-06-14T07:29:49;101001.72;;;21.96;nan
24666;BME280;29726;53.532;-1.478;2023-06-14T07:32:33;100993.84;;;22.07;nan
24666;BME280;29726;53.532;-1.478;2023-06-14T07:35:17;100988.94;;;22.07;nan
24666;BME280;29726;53.532;-1.478;2023-06-14T07:38:01;100940.31;;;21.87;nan
24666;BME280;29726;53.532;-1.478;2023-06-14T07:40:45;100988.94;;;22.26;nan
24666;BME280;29726;53.532;-1.478;2023-06-14T07:43:29;100994.47;;;22.37;nan
24666;BME280;29726;53.532;-1.478;2023-06-14T07:46:14;101016.69;;;22.44;nan
24666;BME280;29726;53.532;-1.478;2023-06-14T07:48:58;100998.81;;;22.62;nan
24666;BME280;29726;53.532;-1.478;2023-06-14T07:51:42;100994.38;;;22.66;nan
24666;BME280;29726;53.532;-1.478;2023-06-14T07:54:28;100997.91;;;22.72;nan
24666;BME280;29726;53.532;-1.478;2023-06-14T07:57:13;100995.56;;;22.89;nan
24666;BME280;29726;53.532;-1.478;2023-06-14T07:59:57;100988.47;;;22.96;nan
24666;BME280;29726;53.532;-1.478;2023-06-14T08:05:26;101001.09;;;23.19;nan
24666;BME280;29726;53.532;-1.478;2023-06-14T08:08:10;100998.59;;;23.28;nan
24666;BME280;29726;53.532;-1.478;2023-06-14T08:10:55;100977.66;;;23.26;nan
24666;BME280;29726;53.532;-1.478;2023-06-14T08:13:39;100977.03;;;23.33;nan
24666;BME280;29726;53.532;-1.478;2023-06-14T08:16:23;100997.88;;;23.54;nan
24666;BME280;29726;53.532;-1.478;2023-06-14T08:19:07;100994.94;;;23.59;nan
24666;BME280;29726;53.532;-1.478;2023-06-14T08:21:51;100981.34;;;23.65;nan
24666;BME280;29726;53.532;-1.478;2023-06-14T08:24:35;100999.72;;;23.83;nan
24666;BME280;29726;53.532;-1.478;2023-06-14T08:27:20;101006.94;;;23.96;nan
24666;BME280;29726;53.532;-1.478;2023-06-14T08:32:49;101001.91;;;24.15;nan
24666;BME280;29726;53.532;-1.478;2023-06-14T08:35:33;100997.81;;;24.24;nan
24666;BME280;29726;53.532;-1.478;2023-06-14T08:38:20;100994.09;;;24.29;nan
24666;BME280;29726;53.532;-1.478;2023-06-14T08:41:05;101007.25;;;24.45;nan
24666;BME280;29726;53.532;-1.478;2023-06-14T08:43:51;101009.34;;;24.57;nan
24666;BME280;29726;53.532;-1.478;2023-06-14T08:49:21;100995.25;;;24.72;nan
24666;BME280;29726;53.532;-1.478;2023-06-14T08:52:07;101000.47;;;24.81;nan
24666;BME280;29726;53.532;-1.478;2023-06-14T08:54:52;100995.59;;;24.89;nan
24666;BME280;29726;53.532;-1.478;2023-06-14T08:57:36;100999.94;;;25.03;nan
24666;BME280;29726;53.532;-1.478;2023-06-14T09:00:22;100941.72;;;24.73;nan
24666;BME280;29726;53.532;-1.478;2023-06-14T09:03:06;100981.13;;;25.08;nan
24666;BME280;29726;53.532;-1.478;2023-06-14T09:08:43;100992.28;;;25.39;nan
24666;BME280;29726;53.532;-1.478;2023-06-14T09:11:28;100991.25;;;25.50;nan
24666;BME280;29726;53.532;-1.478;2023-06-14T09:14:12;100992.84;;;25.58;nan
24666;BME280;29726;53.532;-1.478;2023-06-14T09:16:56;101002.47;;;25.68;nan
24666;BME280;29726;53.532;-1.478;2023-06-14T09:19:40;101004.81;;;25.77;nan
24666;BME280;29726;53.532;-1.478;2023-06-14T09:22:24;100996.50;;;25.86;nan
24666;BME280;29726;53.532;-1.478;2023-06-14T09:25:08;100970.22;;;25.88;nan
24666;BME280;29726;53.532;-1.478;2023-06-14T09:27:53;100992.78;;;25.99;nan
24666;BME280;29726;53.532;-1.478;2023-06-14T09:30:40;100993.38;;;26.05;nan
24666;BME280;29726;53.532;-1.478;2023-06-14T09:33:25;100994.81;;;26.19;nan
24666;BME280;29726;53.532;-1.478;2023-06-14T09:36:11;100998.66;;;26.29;nan
24666;BME280;29726;53.532;-1.478;2023-06-14T09:38:58;100994.47;;;26.30;nan
24666;BME280;29726;53.532;-1.478;2023-06-14T09:41:42;101001.03;;;26.45;nan
24666;BME280;29726;53.532;-1.478;2023-06-14T09:47:15;100988.91;;;26.60;nan
24666;BME280;29726;53.532;-1.478;2023-06-14T09:49:59;100971.72;;;26.60;nan
24666;BME280;29726;53.532;-1.478;2023-06-14T09:52:45;100977.09;;;26.71;nan
24666;BME280;29726;53.532;-1.478;2023-06-14T10:01:06;100980.41;;;26.90;nan
24666;BME280;29726;53.532;-1.478;2023-06-14T10:03:57;101002.44;;;27.10;nan
24666;BME280;29726;53.532;-1.478;2023-06-14T10:06:45;100997.47;;;27.18;nan
24666;BME280;29726;53.532;-1.478;2023-06-14T10:12:18;100969.97;;;27.22;nan
24666;BME280;29726;53.532;-1.478;2023-06-14T10:15:08;100978.75;;;27.32;nan
24666;BME280;29726;53.532;-1.478;2023-06-14T10:17:56;100980.28;;;27.47;nan
24666;BME280;29726;53.532;-1.478;2023-06-14T10:21:03;100995.59;;;27.65;nan
24666;BME280;29726;53.532;-1.478;2023-06-14T10:23:51;101001.31;;;27.72;nan
24666;BME280;29726;53.532;-1.478;2023-06-14T10:26:53;100993.69;;;27.82;nan
24666;BME280;29726;53.532;-1.478;2023-06-14T10:33:04;101002.47;;;27.99;nan
24666;BME280;29726;53.532;-1.478;2023-06-14T10:38:32;100994.75;;;28.09;nan
24666;BME280;29726;53.532;-1.478;2023-06-14T10:41:18;100973.13;;;28.16;nan
24666;BME280;29726;53.532;-1.478;2023-06-14T10:50:11;100953.34;;;28.27;nan
24666;BME280;29726;53.532;-1.478;2023-06-14T10:52:58;100981.63;;;28.53;nan
24666;BME280;29726;53.532;-1.478;2023-06-14T10:55:42;100937.28;;;28.32;nan
24666;BME280;29726;53.532;-1.478;2023-06-14T10:58:26;100993.81;;;28.69;nan
24666;BME280;29726;53.532;-1.478;2023-06-14T11:03:54;100983.78;;;28.77;nan
24666;BME280;29726;53.532;-1.478;2023-06-14T11:09:47;100989.03;;;29.03;nan
24666;BME280;29726;53.532;-1.478;2023-06-14T11:12:39;100981.69;;;29.10;nan
24666;BME280;29726;53.532;-1.478;2023-06-14T11:15:34;100981.66;;;29.17;nan
24666;BME280;29726;53.532;-1.478;2023-06-14T11:18:19;100975.56;;;29.13;nan
24666;BME280;29726;53.532;-1.478;2023-06-14T11:21:03;100975.84;;;29.24;nan
24666;BME280;29726;53.532;-1.478;2023-06-14T11:23:51;100979.94;;;29.38;nan
24666;BME280;29726;53.532;-1.478;2023-06-14T11:26:37;100967.69;;;29.38;nan
24666;BME280;29726;53.532;-1.478;2023-06-14T11:29:21;100967.41;;;29.43;nan
24666;BME280;29726;53.532;-1.478;2023-06-14T11:32:07;100983.25;;;29.59;nan
24666;BME280;29726;53.532;-1.478;2023-06-14T11:34:56;100989.69;;;29.67;nan
24666;BME280;29726;53.532;-1.478;2023-06-14T11:37:42;100993.09;;;29.73;nan
24666;BME280;29726;53.532;-1.478;2023-06-14T11:40:28;100997.25;;;29.80;nan
24666;BME280;29726;53.532;-1.478;2023-06-14T11:43:12;100992.59;;;29.84;nan
24666;BME280;29726;53.532;-1.478;2023-06-14T11:45:58;100971.88;;;29.86;nan
24666;BME280;29726;53.532;-1.478;2023-06-14T11:51:27;100979.16;;;30.04;nan
24666;BME280;29726;53.532;-1.478;2023-06-14T11:54:11;100969.38;;;30.07;nan
24666;BME280;29726;53.532;-1.478;2023-06-14T11:56:55;100980.03;;;30.14;nan
24666;BME280;29726;53.532;-1.478;2023-06-14T11:59:40;100976.47;;;30.23;nan
24666;BME280;29726;53.532;-1.478;2023-06-14T12:02:24;100980.28;;;30.25;nan
24666;BME280;29726;53.532;-1.478;2023-06-14T12:05:09;100977.72;;;30.29;nan
24666;BME280;29726;53.532;-1.478;2023-06-14T12:08:00;100979.75;;;30.36;nan
24666;BME280;29726;53.532;-1.478;2023-06-14T12:10:46;100955.63;;;30.32;nan
24666;BME280;29726;53.532;-1.478;2023-06-14T12:13:31;100970.09;;;30.41;nan
24666;BME280;29726;53.532;-1.478;2023-06-14T12:16:15;100970.75;;;30.49;nan
24666;BME280;29726;53.532;-1.478;2023-06-14T12:19:16;100976.00;;;30.60;nan
24666;BME280;29726;53.532;-1.478;2023-06-14T12:22:00;100982.88;;;30.65;nan
24666;BME280;29726;53.532;-1.478;2023-06-14T12:24:45;100975.91;;;30.68;nan
24666;BME280;29726;53.532;-1.478;2023-06-14T12:27:29;100959.97;;;30.67;nan
24666;BME280;29726;53.532;-1.478;2023-06-14T12:30:14;100969.09;;;30.73;nan
24666;BME280;29726;53.532;-1.478;2023-06-14T12:32:58;100957.75;;;30.75;nan
24666;BME280;29726;53.532;-1.478;2023-06-14T12:35:43;100966.91;;;30.81;nan
24666;BME280;29726;53.532;-1.478;2023-06-14T12:38:27;100971.78;;;30.88;nan
24666;BME280;29726;53.532;-1.478;2023-06-14T12:41:11;100969.84;;;30.90;nan
24666;BME280;29726;53.532;-1.478;2023-06-14T12:43:55;100974.56;;;30.95;nan
24666;BME280;29726;53.532;-1.478;2023-06-14T12:46:42;100972.16;;;31.01;nan
24666;BME280;29726;53.532;-1.478;2023-06-14T12:49:27;100970.06;;;31.02;nan
24666;BME280;29726;53.532;-1.478;2023-06-14T12:52:11;100973.41;;;31.07;nan
24666;BME280;29726;53.532;-1.478;2023-06-14T12:54:56;100967.31;;;31.03;nan
24666;BME280;29726;53.532;-1.478;2023-06-14T12:57:39;100955.47;;;31.00;nan
24666;BME280;29726;53.532;-1.478;2023-06-14T13:00:23;100972.25;;;31.10;nan
24666;BME280;29726;53.532;-1.478;2023-06-14T13:03:10;100976.53;;;31.19;nan
24666;BME280;29726;53.532;-1.478;2023-06-14T13:05:54;100987.16;;;31.16;nan
24666;BME280;29726;53.532;-1.478;2023-06-14T13:08:39;100979.41;;;31.19;nan
24666;BME280;29726;53.532;-1.478;2023-06-14T13:11:22;100992.38;;;31.27;nan
24666;BME280;29726;53.532;-1.478;2023-06-14T13:14:06;100960.28;;;31.14;nan
24666;BME280;29726;53.532;-1.478;2023-06-14T13:19:34;100983.44;;;31.33;nan
24666;BME280;29726;53.532;-1.478;2023-06-14T13:22:19;100973.84;;;31.30;nan
24666;BME280;29726;53.532;-1.478;2023-06-14T13:25:03;100991.78;;;31.38;nan
24666;BME280;29726;53.532;-1.478;2023-06-14T13:27:48;100973.25;;;31.41;nan
24666;BME280;29726;53.532;-1.478;2023-06-14T13:30:33;100955.00;;;31.29;nan
24666;BME280;29726;53.532;-1.478;2023-06-14T13:33:17;100952.28;;;31.31;nan
24666;BME280;29726;53.532;-1.478;2023-06-14T13:36:01;100965.66;;;31.36;nan
24666;BME280;29726;53.532;-1.478;2023-06-14T13:38:46;100962.06;;;31.45;nan
24666;BME280;29726;53.532;-1.478;2023-06-14T13:41:31;100988.81;;;31.55;nan
24666;BME280;29726;53.532;-1.478;2023-06-14T13:44:18;100968.16;;;31.49;nan
24666;BME280;29726;53.532;-1.478;2023-06-14T13:47:05;100974.53;;;31.57;nan
24666;BME280;29726;53.532;-1.478;2023-06-14T13:49:49;100964.19;;;31.54;nan
24666;BME280;29726;53.532;-1.478;2023-06-14T13:52:33;100982.91;;;31.63;nan
24666;BME280;29726;53.532;-1.478;2023-06-14T13:55:18;100981.41;;;31.62;nan
24666;BME280;29726;53.532;-1.478;2023-06-14T13:58:02;100977.88;;;31.63;nan
24666;BME280;29726;53.532;-1.478;2023-06-14T14:00:46;100943.38;;;31.56;nan
24666;BME280;29726;53.532;-1.478;2023-06-14T14:03:30;100967.88;;;31.64;nan
24666;BME280;29726;53.532;-1.478;2023-06-14T14:06:14;100965.34;;;31.68;nan
24666;BME280;29726;53.532;-1.478;2023-06-14T14:08:59;100993.63;;;31.79;nan
24666;BME280;29726;53.532;-1.478;2023-06-14T14:14:27;100976.00;;;31.85;nan
24666;BME280;29726;53.532;-1.478;2023-06-14T14:17:12;100960.63;;;31.82;nan
24666;BME280;29726;53.532;-1.478;2023-06-14T14:19:56;100980.88;;;31.92;nan
24666;BME280;29726;53.532;-1.478;2023-06-14T14:25:24;100965.34;;;31.97;nan
24666;BME280;29726;53.532;-1.478;2023-06-14T14:28:08;100967.66;;;31.98;nan
24666;BME280;29726;53.532;-1.478;2023-06-14T14:33:38;100962.19;;;32.02;nan
24666;BME280;29726;53.532;-1.478;2023-06-14T14:36:22;100971.00;;;32.04;nan
24666;BME280;29726;53.532;-1.478;2023-06-14T14:39:07;100985.91;;;32.10;nan
24666;BME280;29726;53.532;-1.478;2023-06-14T14:41:50;100970.84;;;32.12;nan
24666;BME280;29726;53.532;-1.478;2023-06-14T14:44:35;100973.59;;;32.10;nan
24666;BME280;29726;53.532;-1.478;2023-06-14T14:47:19;100935.88;;;31.89;nan
24666;BME280;29726;53.532;-1.478;2023-06-14T14:50:04;100973.47;;;32.17;nan
24666;BME280;29726;53.532;-1.478;2023-06-14T14:52:48;100970.75;;;32.19;nan
24666;BME280;29726;53.532;-1.478;2023-06-14T14:55:32;100972.56;;;32.24;nan
24666;BME280;29726;53.532;-1.478;2023-06-14T14:58:18;100971.63;;;32.22;nan
24666;BME280;29726;53.532;-1.478;2023-06-14T15:01:02;100962.22;;;32.21;nan
24666;BME280;29726;53.532;-1.478;2023-06-14T15:03:46;100975.16;;;32.30;nan
24666;BME280;29726;53.532;-1.478;2023-06-14T15:06:30;100972.13;;;32.28;nan
24666;BME280;29726;53.532;-1.478;2023-06-14T15:09:14;100970.75;;;32.29;nan
24666;BME280;29726;53.532;-1.478;2023-06-14T15:11:58;100955.66;;;32.30;nan
24666;BME280;29726;53.532;-1.478;2023-06-14T15:14:42;100978.50;;;32.36;nan
24666;BME280;29726;53.532;-1.478;2023-06-14T15:17:26;100978.03;;;32.39;nan
24666;BME280;29726;53.532;-1.478;2023-06-14T15:22:56;100974.81;;;32.45;nan
24666;BME280;29726;53.532;-1.478;2023-06-14T15:25:43;100978.47;;;32.45;nan
24666;BME280;29726;53.532;-1.478;2023-06-14T15:28:27;100974.06;;;32.44;nan
24666;BME280;29726;53.532;-1.478;2023-06-14T15:31:14;100948.94;;;32.37;nan
24666;BME280;29726;53.532;-1.478;2023-06-14T15:33:58;100981.66;;;32.49;nan
24666;BME280;29726;53.532;-1.478;2023-06-14T15:36:42;100983.47;;;32.54;nan
24666;BME280;29726;53.532;-1.478;2023-06-14T15:39:26;100964.03;;;32.45;nan
24666;BME280;29726;53.532;-1.478;2023-06-14T15:42:11;100974.06;;;32.54;nan
24666;BME280;29726;53.532;-1.478;2023-06-14T15:44:55;100940.59;;;32.41;nan
24666;BME280;29726;53.532;-1.478;2023-06-14T15:47:39;100939.97;;;32.33;nan
24666;BME280;29726;53.532;-1.478;2023-06-14T15:53:07;100979.06;;;32.63;nan
24666;BME280;29726;53.532;-1.478;2023-06-14T15:55:51;100966.75;;;32.62;nan
24666;BME280;29726;53.532;-1.478;2023-06-14T15:58:35;100975.25;;;32.60;nan
24666;BME280;29726;53.532;-1.478;2023-06-14T16:01:19;100970.09;;;32.59;nan
24666;BME280;29726;53.532;-1.478;2023-06-14T16:04:03;100979.34;;;32.67;nan
24666;BME280;29726;53.532;-1.478;2023-06-14T16:09:32;100969.16;;;32.66;nan
24666;BME280;29726;53.532;-1.478;2023-06-14T16:12:17;100972.22;;;32.68;nan
24666;BME280;29726;53.532;-1.478;2023-06-14T16:20:29;100961.09;;;32.64;nan
24666;BME280;29726;53.532;-1.478;2023-06-14T16:23:13;100974.66;;;32.71;nan